Big Bear Station Historical Data
Daily Summary for May 4, 2019 Units:  English    Metric   Both
Next Day »
Daily Weekly Monthly Yearly Custom
  High: Low: Average:
Temperature: 67.8 °F 33.1 °F 49.7 °F
Dew Point: 36.3 °F 17.6 °F 25.4 °F
Humidity: 69% 20% 42%
Wind Speed: 7.3mph 0mph 1.8mph
Wind Gust: -999mph - -
Wind- - WNW
Pressure: 23.47 in 23.40 in -
Precipitation: 0 in    
Historical Graphs
 
 
Tabular Data for May 4, 2019
Time Temperature Dew Point Pressure Wind Wind Speed Wind Gust Humidity Rainfall Rate (Hourly)
00:13 39.9 °F 22.3 °F 23.47 in Calm   -999 mph 49% 0.00 in
00:28 39.4 °F 17.6 °F 23.47 in Calm   -999 mph 41% 0.00 in
00:43 39 °F 21.9 °F 23.47 in Calm   -999 mph 50% 0.00 in
00:58 38.5 °F 22.8 °F 23.46 in Calm   -999 mph 53% 0.00 in
01:13 38.5 °F 25.4 °F 23.46 in Calm   -999 mph 59% 0.00 in
01:29 38.3 °F 19.3 °F 23.46 in Calm   -999 mph 46% 0.00 in
01:44 37.6 °F 20.6 °F 23.45 in Calm   -999 mph 50% 0.00 in
01:59 37.2 °F 23.8 °F 23.45 in Calm   -999 mph 58% 0.00 in
02:14 37.2 °F 25.8 °F 23.45 in Calm   -999 mph 63% 0.00 in
02:29 36.5 °F 23.5 °F 23.45 in Calm   -999 mph 59% 0.00 in
02:45 36.3 °F 22.9 °F 23.45 in Calm   -999 mph 58% 0.00 in
03:00 36.1 °F 22.3 °F 23.45 in Calm   -999 mph 57% 0.00 in
03:15 36 °F 19.1 °F 23.45 in Calm   -999 mph 50% 0.00 in
03:30 35.8 °F 19.9 °F 23.44 in Calm   -999 mph 52% 0.00 in
03:45 35.8 °F 21.2 °F 23.44 in Calm   -999 mph 55% 0.00 in
04:01 35.2 °F 23.9 °F 23.44 in Calm   -999 mph 63% 0.00 in
04:16 34.9 °F 23.6 °F 23.44 in Calm   -999 mph 63% 0.00 in
04:31 34.3 °F 25.2 °F 23.44 in Calm   -999 mph 69% 0.00 in
04:46 34.3 °F 25.2 °F 23.43 in Calm   -999 mph 69% 0.00 in
05:02 34 °F 24.5 °F 23.43 in Calm   -999 mph 68% 0.00 in
05:17 33.8 °F 22.2 °F 23.43 in Calm   -999 mph 62% 0.00 in
05:32 33.4 °F 22.2 °F 23.43 in Calm   -999 mph 63% 0.00 in
05:47 33.3 °F 22.1 °F 23.43 in Calm   -999 mph 63% 0.00 in
06:02 33.4 °F 22.9 °F 23.43 in Calm   -999 mph 65% 0.00 in
06:18 33.1 °F 23.3 °F 23.43 in Calm   -999 mph 67% 0.00 in
06:33 33.1 °F 23 °F 23.43 in Calm   -999 mph 66% 0.00 in
06:48 33.6 °F 22 °F 23.43 in Calm   -999 mph 62% 0.00 in
07:03 34 °F 22.3 °F 23.44 in Calm   -999 mph 62% 0.00 in
07:18 34.9 °F 24.3 °F 23.44 in Calm   -999 mph 65% 0.00 in
07:34 35.4 °F 25.2 °F 23.44 in Calm   -999 mph 66% 0.00 in
07:49 36.3 °F 26.7 °F 23.44 in Calm   -999 mph 68% 0.00 in
08:04 38.3 °F 27.2 °F 23.44 in Calm   -999 mph 64% 0.00 in
08:19 40.3 °F 27.5 °F 23.44 in Calm   -999 mph 60% 0.00 in
08:34 42.4 °F 29.9 °F 23.44 in Calm   -999 mph 61% 0.00 in
08:50 45.5 °F 27.9 °F 23.44 in Calm   -999 mph 50% 0.00 in
09:05 50.4 °F 20.9 °F 23.44 in Calm   -999 mph 31% 0.00 in
09:20 54.3 °F 21 °F 23.44 in Calm   -999 mph 27% 0.00 in
09:35 56.8 °F 22.3 °F 23.44 in NW 2.7 mph -999 mph 26% 0.00 in
09:51 58.3 °F 24.4 °F 23.45 in NW 4.2 mph -999 mph 27% 0.00 in
10:06 59.2 °F 24.3 °F 23.45 in NW 5.8 mph -999 mph 26% 0.00 in
10:21 60.1 °F 24.1 °F 23.45 in NNW 4.2 mph -999 mph 25% 0.00 in
10:36 61.3 °F 21 °F 23.45 in NW 5.3 mph -999 mph 21% 0.00 in
10:52 62.8 °F 25.5 °F 23.45 in NW 4.7 mph -999 mph 24% 0.00 in
11:07 63.7 °F 26.2 °F 23.45 in NNW 4.7 mph -999 mph 24% 0.00 in
11:22 65.1 °F 23 °F 23.45 in WNW 3.7 mph -999 mph 20% 0.00 in
11:38 65.3 °F 25.5 °F 23.44 in NW 5.8 mph -999 mph 22% 0.00 in
11:53 65.8 °F 27 °F 23.44 in NW 4.7 mph -999 mph 23% 0.00 in
12:08 66.2 °F 29.3 °F 23.44 in NW 6.3 mph -999 mph 25% 0.00 in
12:24 66.9 °F 26.8 °F 23.44 in NNW 5.8 mph -999 mph 22% 0.00 in
12:39 67.3 °F 29.3 °F 23.44 in NW 5.8 mph -999 mph 24% 0.00 in
12:54 66.9 °F 27.9 °F 23.43 in NW 3.2 mph -999 mph 23% 0.00 in
13:10 67.6 °F 28.5 °F 23.43 in NNW 5.3 mph -999 mph 23% 0.00 in
13:25 67.8 °F 29.7 °F 23.43 in NW 6.8 mph -999 mph 24% 0.00 in
13:41 66.9 °F 27.9 °F 23.43 in NW 4.7 mph -999 mph 23% 0.00 in
13:57 67.5 °F 26.2 °F 23.43 in South 5.8 mph -999 mph 21% 0.00 in
14:12 66.6 °F 26.6 °F 23.43 in North 7.3 mph -999 mph 22% 0.00 in
14:27 66.6 °F 28.7 °F 23.42 in WNW 4.7 mph -999 mph 24% 0.00 in
14:42 64.9 °F 26.2 °F 23.43 in NNW 3.7 mph -999 mph 23% 0.00 in
14:58 65.8 °F 27 °F 23.43 in NW 6.8 mph -999 mph 23% 0.00 in
15:13 65.8 °F 27 °F 23.42 in SSE 2.2 mph -999 mph 23% 0.00 in
15:28 64.6 °F 23.8 °F 23.42 in NNW 3.7 mph -999 mph 21% 0.00 in
15:43 64 °F 27.5 °F 23.42 in NNW 5.3 mph -999 mph 25% 0.00 in
15:59 64.6 °F 22.6 °F 23.42 in East 1.7 mph -999 mph 20% 0.00 in
16:14 63.7 °F 24.1 °F 23.42 in Calm   -999 mph 22% 0.00 in
16:29 63.5 °F 29.8 °F 23.41 in WSW 2.2 mph -999 mph 28% 0.00 in
16:45 65.5 °F 31.5 °F 23.41 in NW 5.3 mph -999 mph 28% 0.00 in
17:00 65.8 °F 30.9 °F 23.41 in NW 4.7 mph -999 mph 27% 0.00 in
17:15 66 °F 29.2 °F 23.41 in SW 2.2 mph -999 mph 25% 0.00 in
17:30 65.8 °F 29.9 °F 23.41 in West 4.7 mph -999 mph 26% 0.00 in
17:46 67.1 °F 32 °F 23.41 in West 2.7 mph -999 mph 27% 0.00 in
18:01 64.8 °F 30 °F 23.41 in NNW 7.3 mph -999 mph 27% 0.00 in
18:16 64.4 °F 34.7 °F 23.41 in WNW 3.7 mph -999 mph 33% 0.00 in
18:31 61.3 °F 35.5 °F 23.41 in NW 4.7 mph -999 mph 38% 0.00 in
18:46 56.3 °F 36.3 °F 23.40 in West 1.1 mph -999 mph 47% 0.00 in
19:02 54.3 °F 35 °F 23.40 in Calm   -999 mph 48% 0.00 in
19:17 52.5 °F 34.4 °F 23.40 in North 2.7 mph -999 mph 50% 0.00 in
19:32 51.3 °F 32.8 °F 23.40 in Calm   -999 mph 49% 0.00 in
19:47 50.4 °F 30.9 °F 23.40 in Calm   -999 mph 47% 0.00 in
20:03 48.6 °F 25.4 °F 23.40 in South 2.2 mph -999 mph 40% 0.00 in
20:18 47.5 °F 23.8 °F 23.40 in SSE 2.2 mph -999 mph 39% 0.00 in
20:33 47.3 °F 21.7 °F 23.40 in SSE 1.7 mph -999 mph 36% 0.00 in
20:48 46.9 °F 21.3 °F 23.40 in Calm   -999 mph 36% 0.00 in
21:03 46.2 °F 22.6 °F 23.40 in Calm   -999 mph 39% 0.00 in
21:19 45.5 °F 23.7 °F 23.40 in Calm   -999 mph 42% 0.00 in
21:34 45.1 °F 25 °F 23.40 in Calm   -999 mph 45% 0.00 in
21:49 43.9 °F 25 °F 23.40 in Calm   -999 mph 47% 0.00 in
22:04 43.3 °F 25.9 °F 23.41 in Calm   -999 mph 50% 0.00 in
22:19 42.6 °F 25.3 °F 23.41 in Calm   -999 mph 50% 0.00 in
22:35 41.9 °F 24.6 °F 23.40 in Calm   -999 mph 50% 0.00 in
22:50 41.4 °F 22.7 °F 23.40 in Calm   -999 mph 47% 0.00 in
23:05 40.8 °F 20.6 °F 23.40 in Calm   -999 mph 44% 0.00 in
23:20 40.5 °F 19.2 °F 23.40 in Calm   -999 mph 42% 0.00 in
23:35 39.9 °F 19.7 °F 23.40 in Calm   -999 mph 44% 0.00 in
23:51 39.6 °F 21.5 °F 23.40 in Calm   -999 mph 48% 0.00 in
Big Bear CA Weather